sensor_id;sensor_type;location;lat;lon;timestamp;P1;durP1;ratioP1;P2;durP2;ratioP2
18576;SDS011;9418;52.694;13.294;2023-05-31T00:02:12;3.67;;;2.20;;
18576;SDS011;9418;52.694;13.294;2023-05-31T00:04:39;5.43;;;1.83;;
18576;SDS011;9418;52.694;13.294;2023-05-31T00:07:06;4.60;;;1.80;;
18576;SDS011;9418;52.694;13.294;2023-05-31T00:09:34;2.27;;;2.07;;
18576;SDS011;9418;52.694;13.294;2023-05-31T00:12:00;4.80;;;1.73;;
18576;SDS011;9418;52.694;13.294;2023-05-31T00:14:27;9.50;;;1.90;;
18576;SDS011;9418;52.694;13.294;2023-05-31T00:16:53;2.43;;;1.90;;
18576;SDS011;9418;52.694;13.294;2023-05-31T00:19:20;8.10;;;1.77;;
18576;SDS011;9418;52.694;13.294;2023-05-31T00:21:46;2.70;;;1.60;;
18576;SDS011;9418;52.694;13.294;2023-05-31T00:24:13;4.00;;;1.63;;
18576;SDS011;9418;52.694;13.294;2023-05-31T00:26:41;3.10;;;2.17;;
18576;SDS011;9418;52.694;13.294;2023-05-31T00:29:07;10.20;;;2.20;;
18576;SDS011;9418;52.694;13.294;2023-05-31T00:31:34;2.03;;;1.83;;
18576;SDS011;9418;52.694;13.294;2023-05-31T00:34:01;3.13;;;2.03;;
18576;SDS011;9418;52.694;13.294;2023-05-31T00:36:27;2.40;;;1.70;;
18576;SDS011;9418;52.694;13.294;2023-05-31T00:38:54;3.27;;;2.10;;
18576;SDS011;9418;52.694;13.294;2023-05-31T00:41:20;4.60;;;1.50;;
18576;SDS011;9418;52.694;13.294;2023-05-31T00:43:49;2.30;;;1.60;;
18576;SDS011;9418;52.694;13.294;2023-05-31T00:46:19;17.33;;;2.13;;
18576;SDS011;9418;52.694;13.294;2023-05-31T00:48:51;5.30;;;1.77;;
18576;SDS011;9418;52.694;13.294;2023-05-31T00:51:18;2.67;;;2.47;;
18576;SDS011;9418;52.694;13.294;2023-05-31T00:53:45;2.13;;;1.93;;
18576;SDS011;9418;52.694;13.294;2023-05-31T00:56:12;2.23;;;1.93;;
18576;SDS011;9418;52.694;13.294;2023-05-31T00:58:40;3.30;;;2.37;;
18576;SDS011;9418;52.694;13.294;2023-05-31T01:01:08;5.63;;;1.67;;
18576;SDS011;9418;52.694;13.294;2023-05-31T01:03:36;2.73;;;1.80;;
18576;SDS011;9418;52.694;13.294;2023-05-31T01:06:03;2.40;;;2.10;;
18576;SDS011;9418;52.694;13.294;2023-05-31T01:08:30;3.10;;;2.60;;
18576;SDS011;9418;52.694;13.294;2023-05-31T01:10:57;2.03;;;1.90;;
18576;SDS011;9418;52.694;13.294;2023-05-31T01:13:28;5.27;;;2.83;;
18576;SDS011;9418;52.694;13.294;2023-05-31T01:16:04;3.57;;;2.13;;
18576;SDS011;9418;52.694;13.294;2023-05-31T01:18:37;3.80;;;1.77;;
18576;SDS011;9418;52.694;13.294;2023-05-31T01:21:09;2.30;;;2.00;;
18576;SDS011;9418;52.694;13.294;2023-05-31T01:23:41;2.33;;;2.07;;
18576;SDS011;9418;52.694;13.294;2023-05-31T01:29:07;2.00;;;1.60;;
18576;SDS011;9418;52.694;13.294;2023-05-31T01:31:36;5.67;;;2.23;;
18576;SDS011;9418;52.694;13.294;2023-05-31T01:34:05;3.03;;;2.13;;
18576;SDS011;9418;52.694;13.294;2023-05-31T01:36:33;6.00;;;2.03;;
18576;SDS011;9418;52.694;13.294;2023-05-31T01:39:00;5.10;;;1.67;;
18576;SDS011;9418;52.694;13.294;2023-05-31T01:41:28;2.00;;;1.90;;
18576;SDS011;9418;52.694;13.294;2023-05-31T01:43:58;2.33;;;2.07;;
18576;SDS011;9418;52.694;13.294;2023-05-31T01:46:26;3.30;;;2.47;;
18576;SDS011;9418;52.694;13.294;2023-05-31T01:48:53;3.70;;;2.10;;
18576;SDS011;9418;52.694;13.294;2023-05-31T01:51:20;1.90;;;1.80;;
18576;SDS011;9418;52.694;13.294;2023-05-31T01:53:48;2.40;;;2.20;;
18576;SDS011;9418;52.694;13.294;2023-05-31T01:56:15;3.17;;;1.70;;
18576;SDS011;9418;52.694;13.294;2023-05-31T01:58:44;3.97;;;2.10;;
18576;SDS011;9418;52.694;13.294;2023-05-31T02:01:15;4.00;;;2.00;;
18576;SDS011;9418;52.694;13.294;2023-05-31T02:03:43;11.93;;;2.67;;
18576;SDS011;9418;52.694;13.294;2023-05-31T02:06:10;5.33;;;2.10;;
18576;SDS011;9418;52.694;13.294;2023-05-31T02:08:38;6.53;;;2.47;;
18576;SDS011;9418;52.694;13.294;2023-05-31T02:11:05;12.13;;;1.80;;
18576;SDS011;9418;52.694;13.294;2023-05-31T02:13:33;3.27;;;2.27;;
18576;SDS011;9418;52.694;13.294;2023-05-31T02:16:00;4.63;;;2.20;;
18576;SDS011;9418;52.694;13.294;2023-05-31T02:18:29;1.93;;;1.60;;
18576;SDS011;9418;52.694;13.294;2023-05-31T02:20:57;4.10;;;2.17;;
18576;SDS011;9418;52.694;13.294;2023-05-31T02:23:24;2.80;;;2.07;;
18576;SDS011;9418;52.694;13.294;2023-05-31T02:25:51;2.07;;;1.87;;
18576;SDS011;9418;52.694;13.294;2023-05-31T02:28:17;3.70;;;2.40;;
18576;SDS011;9418;52.694;13.294;2023-05-31T02:30:52;2.03;;;1.93;;
18576;SDS011;9418;52.694;13.294;2023-05-31T02:33:19;5.73;;;2.30;;
18576;SDS011;9418;52.694;13.294;2023-05-31T02:35:48;6.90;;;2.07;;
18576;SDS011;9418;52.694;13.294;2023-05-31T02:38:14;3.13;;;2.80;;
18576;SDS011;9418;52.694;13.294;2023-05-31T02:40:41;3.90;;;2.40;;
18576;SDS011;9418;52.694;13.294;2023-05-31T02:43:07;2.13;;;1.90;;
18576;SDS011;9418;52.694;13.294;2023-05-31T02:45:35;2.43;;;1.87;;
18576;SDS011;9418;52.694;13.294;2023-05-31T02:48:01;2.30;;;2.07;;
18576;SDS011;9418;52.694;13.294;2023-05-31T02:50:30;3.73;;;2.47;;
18576;SDS011;9418;52.694;13.294;2023-05-31T02:52:58;3.57;;;2.10;;
18576;SDS011;9418;52.694;13.294;2023-05-31T02:55:25;10.73;;;2.33;;
18576;SDS011;9418;52.694;13.294;2023-05-31T02:57:52;3.73;;;2.73;;
18576;SDS011;9418;52.694;13.294;2023-05-31T03:00:18;2.13;;;1.93;;
18576;SDS011;9418;52.694;13.294;2023-05-31T03:02:45;3.73;;;2.57;;
18576;SDS011;9418;52.694;13.294;2023-05-31T03:05:12;2.53;;;1.97;;
18576;SDS011;9418;52.694;13.294;2023-05-31T03:07:38;6.93;;;1.90;;
18576;SDS011;9418;52.694;13.294;2023-05-31T03:10:07;3.50;;;2.10;;
18576;SDS011;9418;52.694;13.294;2023-05-31T03:12:35;2.80;;;1.93;;
18576;SDS011;9418;52.694;13.294;2023-05-31T03:15:02;2.30;;;2.00;;
18576;SDS011;9418;52.694;13.294;2023-05-31T03:17:29;2.83;;;2.63;;
18576;SDS011;9418;52.694;13.294;2023-05-31T03:19:56;3.97;;;2.27;;
18576;SDS011;9418;52.694;13.294;2023-05-31T03:22:23;4.70;;;2.43;;
18576;SDS011;9418;52.694;13.294;2023-05-31T03:24:50;2.07;;;1.90;;
18576;SDS011;9418;52.694;13.294;2023-05-31T03:27:18;2.20;;;2.00;;
18576;SDS011;9418;52.694;13.294;2023-05-31T03:29:44;2.60;;;2.20;;
18576;SDS011;9418;52.694;13.294;2023-05-31T03:32:11;6.83;;;2.80;;
18576;SDS011;9418;52.694;13.294;2023-05-31T03:34:37;3.37;;;2.00;;
18576;SDS011;9418;52.694;13.294;2023-05-31T03:37:04;3.77;;;2.13;;
18576;SDS011;9418;52.694;13.294;2023-05-31T03:39:31;3.63;;;1.93;;
18576;SDS011;9418;52.694;13.294;2023-05-31T03:41:58;5.23;;;2.10;;
18576;SDS011;9418;52.694;13.294;2023-05-31T03:44:27;10.03;;;2.47;;
18576;SDS011;9418;52.694;13.294;2023-05-31T03:46:53;3.53;;;1.97;;
18576;SDS011;9418;52.694;13.294;2023-05-31T03:49:20;4.87;;;2.37;;
18576;SDS011;9418;52.694;13.294;2023-05-31T03:51:46;2.90;;;2.40;;
18576;SDS011;9418;52.694;13.294;2023-05-31T03:54:13;8.43;;;2.40;;
18576;SDS011;9418;52.694;13.294;2023-05-31T03:56:40;2.33;;;2.13;;
18576;SDS011;9418;52.694;13.294;2023-05-31T03:59:06;2.20;;;2.00;;
18576;SDS011;9418;52.694;13.294;2023-05-31T04:01:35;2.47;;;1.83;;
18576;SDS011;9418;52.694;13.294;2023-05-31T04:04:02;3.10;;;2.47;;
18576;SDS011;9418;52.694;13.294;2023-05-31T04:06:28;4.60;;;2.27;;
18576;SDS011;9418;52.694;13.294;2023-05-31T04:08:55;2.67;;;2.43;;
18576;SDS011;9418;52.694;13.294;2023-05-31T04:11:22;4.10;;;2.00;;
18576;SDS011;9418;52.694;13.294;2023-05-31T04:13:49;4.73;;;2.07;;
18576;SDS011;9418;52.694;13.294;2023-05-31T04:16:15;9.73;;;2.53;;
18576;SDS011;9418;52.694;13.294;2023-05-31T04:18:43;4.93;;;2.53;;
18576;SDS011;9418;52.694;13.294;2023-05-31T04:21:09;2.73;;;2.40;;
18576;SDS011;9418;52.694;13.294;2023-05-31T04:23:36;8.80;;;3.17;;
18576;SDS011;9418;52.694;13.294;2023-05-31T04:26:03;4.23;;;1.90;;
18576;SDS011;9418;52.694;13.294;2023-05-31T04:28:29;3.20;;;2.30;;
18576;SDS011;9418;52.694;13.294;2023-05-31T04:30:56;4.20;;;2.13;;
18576;SDS011;9418;52.694;13.294;2023-05-31T04:33:23;8.73;;;2.87;;
18576;SDS011;9418;52.694;13.294;2023-05-31T04:35:55;11.40;;;2.27;;
18576;SDS011;9418;52.694;13.294;2023-05-31T04:38:22;6.13;;;2.23;;
18576;SDS011;9418;52.694;13.294;2023-05-31T04:40:52;5.37;;;2.47;;
18576;SDS011;9418;52.694;13.294;2023-05-31T04:43:19;3.37;;;2.43;;
18576;SDS011;9418;52.694;13.294;2023-05-31T04:45:45;5.10;;;2.50;;
18576;SDS011;9418;52.694;13.294;2023-05-31T04:48:13;5.33;;;2.50;;
18576;SDS011;9418;52.694;13.294;2023-05-31T04:50:41;5.07;;;2.47;;
18576;SDS011;9418;52.694;13.294;2023-05-31T04:53:10;8.47;;;2.57;;
18576;SDS011;9418;52.694;13.294;2023-05-31T04:55:36;3.27;;;2.30;;
18576;SDS011;9418;52.694;13.294;2023-05-31T04:58:03;8.10;;;2.57;;
18576;SDS011;9418;52.694;13.294;2023-05-31T05:00:30;7.90;;;2.80;;
18576;SDS011;9418;52.694;13.294;2023-05-31T05:02:57;2.20;;;2.10;;
18576;SDS011;9418;52.694;13.294;2023-05-31T05:05:23;7.10;;;3.10;;
18576;SDS011;9418;52.694;13.294;2023-05-31T05:07:50;3.20;;;2.80;;
18576;SDS011;9418;52.694;13.294;2023-05-31T05:10:18;5.27;;;2.83;;
18576;SDS011;9418;52.694;13.294;2023-05-31T05:12:45;4.00;;;2.77;;
18576;SDS011;9418;52.694;13.294;2023-05-31T05:15:11;4.10;;;2.87;;
18576;SDS011;9418;52.694;13.294;2023-05-31T05:17:38;4.27;;;3.00;;
18576;SDS011;9418;52.694;13.294;2023-05-31T05:20:06;8.63;;;2.23;;
18576;SDS011;9418;52.694;13.294;2023-05-31T05:22:35;5.07;;;2.50;;
18576;SDS011;9418;52.694;13.294;2023-05-31T05:25:01;6.13;;;2.30;;
18576;SDS011;9418;52.694;13.294;2023-05-31T05:27:30;3.23;;;2.00;;
18576;SDS011;9418;52.694;13.294;2023-05-31T05:29:56;3.73;;;2.30;;
18576;SDS011;9418;52.694;13.294;2023-05-31T05:32:23;4.40;;;2.63;;
18576;SDS011;9418;52.694;13.294;2023-05-31T05:34:49;5.03;;;2.80;;
18576;SDS011;9418;52.694;13.294;2023-05-31T05:37:16;3.30;;;2.33;;
18576;SDS011;9418;52.694;13.294;2023-05-31T05:39:42;5.20;;;3.27;;
18576;SDS011;9418;52.694;13.294;2023-05-31T05:42:09;3.93;;;2.90;;
18576;SDS011;9418;52.694;13.294;2023-05-31T05:44:38;7.30;;;2.43;;
18576;SDS011;9418;52.694;13.294;2023-05-31T05:47:05;7.57;;;3.17;;
18576;SDS011;9418;52.694;13.294;2023-05-31T05:49:31;5.53;;;2.70;;
18576;SDS011;9418;52.694;13.294;2023-05-31T05:51:59;3.33;;;2.40;;
18576;SDS011;9418;52.694;13.294;2023-05-31T05:54:25;5.50;;;2.30;;
18576;SDS011;9418;52.694;13.294;2023-05-31T05:56:52;5.20;;;2.50;;
18576;SDS011;9418;52.694;13.294;2023-05-31T05:59:19;3.80;;;2.70;;
18576;SDS011;9418;52.694;13.294;2023-05-31T06:01:46;3.63;;;2.57;;
18576;SDS011;9418;52.694;13.294;2023-05-31T06:04:13;7.07;;;2.77;;
18576;SDS011;9418;52.694;13.294;2023-05-31T06:06:39;4.90;;;2.50;;
18576;SDS011;9418;52.694;13.294;2023-05-31T06:09:06;6.13;;;3.33;;
18576;SDS011;9418;52.694;13.294;2023-05-31T06:11:33;3.60;;;2.40;;
18576;SDS011;9418;52.694;13.294;2023-05-31T06:14:00;3.77;;;2.50;;
18576;SDS011;9418;52.694;13.294;2023-05-31T06:16:26;2.43;;;2.20;;
18576;SDS011;9418;52.694;13.294;2023-05-31T06:18:54;6.10;;;2.30;;
18576;SDS011;9418;52.694;13.294;2023-05-31T06:21:20;5.47;;;2.70;;
18576;SDS011;9418;52.694;13.294;2023-05-31T06:23:47;7.00;;;2.40;;
18576;SDS011;9418;52.694;13.294;2023-05-31T06:26:13;12.57;;;2.40;;
18576;SDS011;9418;52.694;13.294;2023-05-31T06:28:40;4.40;;;2.20;;
18576;SDS011;9418;52.694;13.294;2023-05-31T06:31:06;6.20;;;2.80;;
18576;SDS011;9418;52.694;13.294;2023-05-31T06:33:34;3.90;;;2.47;;
18576;SDS011;9418;52.694;13.294;2023-05-31T06:36:02;4.20;;;2.60;;
18576;SDS011;9418;52.694;13.294;2023-05-31T06:38:29;6.80;;;2.47;;
18576;SDS011;9418;52.694;13.294;2023-05-31T06:40:55;5.73;;;2.70;;
18576;SDS011;9418;52.694;13.294;2023-05-31T06:43:22;5.77;;;2.80;;
18576;SDS011;9418;52.694;13.294;2023-05-31T06:45:50;13.63;;;2.67;;
18576;SDS011;9418;52.694;13.294;2023-05-31T06:48:16;6.67;;;2.80;;
18576;SDS011;9418;52.694;13.294;2023-05-31T06:50:43;7.83;;;2.27;;
18576;SDS011;9418;52.694;13.294;2023-05-31T06:53:11;2.70;;;2.43;;
18576;SDS011;9418;52.694;13.294;2023-05-31T06:55:38;2.40;;;2.20;;
18576;SDS011;9418;52.694;13.294;2023-05-31T06:58:05;2.97;;;2.10;;
18576;SDS011;9418;52.694;13.294;2023-05-31T07:00:31;6.40;;;2.53;;
18576;SDS011;9418;52.694;13.294;2023-05-31T07:02:58;7.93;;;2.13;;
18576;SDS011;9418;52.694;13.294;2023-05-31T07:05:25;7.50;;;2.37;;
18576;SDS011;9418;52.694;13.294;2023-05-31T07:07:51;6.33;;;2.40;;
18576;SDS011;9418;52.694;13.294;2023-05-31T07:10:19;6.43;;;3.37;;
18576;SDS011;9418;52.694;13.294;2023-05-31T07:12:46;4.17;;;2.63;;
18576;SDS011;9418;52.694;13.294;2023-05-31T07:15:13;5.20;;;2.37;;
18576;SDS011;9418;52.694;13.294;2023-05-31T07:17:40;6.17;;;2.23;;
18576;SDS011;9418;52.694;13.294;2023-05-31T07:20:07;3.10;;;2.20;;
18576;SDS011;9418;52.694;13.294;2023-05-31T07:22:34;4.27;;;2.53;;
18576;SDS011;9418;52.694;13.294;2023-05-31T07:25:00;4.80;;;2.53;;
18576;SDS011;9418;52.694;13.294;2023-05-31T07:27:29;7.77;;;2.83;;
18576;SDS011;9418;52.694;13.294;2023-05-31T07:29:56;6.57;;;2.57;;
18576;SDS011;9418;52.694;13.294;2023-05-31T07:32:23;5.30;;;2.33;;
18576;SDS011;9418;52.694;13.294;2023-05-31T07:34:49;6.40;;;2.10;;
18576;SDS011;9418;52.694;13.294;2023-05-31T07:37:16;6.50;;;2.53;;
18576;SDS011;9418;52.694;13.294;2023-05-31T07:39:43;10.80;;;2.33;;
18576;SDS011;9418;52.694;13.294;2023-05-31T07:42:10;2.60;;;2.27;;
18576;SDS011;9418;52.694;13.294;2023-05-31T07:44:40;19.30;;;2.43;;
18576;SDS011;9418;52.694;13.294;2023-05-31T07:47:06;4.37;;;2.33;;
18576;SDS011;9418;52.694;13.294;2023-05-31T07:49:33;2.90;;;2.07;;
18576;SDS011;9418;52.694;13.294;2023-05-31T07:52:00;6.50;;;2.10;;
18576;SDS011;9418;52.694;13.294;2023-05-31T07:54:27;11.13;;;2.60;;
18576;SDS011;9418;52.694;13.294;2023-05-31T07:56:53;4.83;;;2.50;;
18576;SDS011;9418;52.694;13.294;2023-05-31T07:59:20;11.40;;;1.80;;
18576;SDS011;9418;52.694;13.294;2023-05-31T08:01:48;5.20;;;2.00;;
18576;SDS011;9418;52.694;13.294;2023-05-31T08:04:14;6.93;;;2.33;;
18576;SDS011;9418;52.694;13.294;2023-05-31T08:06:41;7.23;;;1.77;;
18576;SDS011;9418;52.694;13.294;2023-05-31T08:09:08;15.63;;;2.57;;
18576;SDS011;9418;52.694;13.294;2023-05-31T08:11:35;3.87;;;2.10;;
18576;SDS011;9418;52.694;13.294;2023-05-31T08:14:01;2.50;;;2.00;;
18576;SDS011;9418;52.694;13.294;2023-05-31T08:16:28;12.93;;;2.63;;
18576;SDS011;9418;52.694;13.294;2023-05-31T08:18:56;9.43;;;2.20;;
18576;SDS011;9418;52.694;13.294;2023-05-31T08:21:23;8.33;;;2.10;;
18576;SDS011;9418;52.694;13.294;2023-05-31T08:23:49;8.07;;;2.00;;
18576;SDS011;9418;52.694;13.294;2023-05-31T08:26:16;3.87;;;1.70;;
18576;SDS011;9418;52.694;13.294;2023-05-31T08:28:43;6.10;;;2.00;;
18576;SDS011;9418;52.694;13.294;2023-05-31T08:31:10;5.40;;;2.77;;
18576;SDS011;9418;52.694;13.294;2023-05-31T08:33:36;9.97;;;1.93;;
18576;SDS011;9418;52.694;13.294;2023-05-31T08:36:06;9.00;;;1.77;;
18576;SDS011;9418;52.694;13.294;2023-05-31T08:38:33;5.57;;;1.83;;
18576;SDS011;9418;52.694;13.294;2023-05-31T08:41:01;4.57;;;1.77;;
18576;SDS011;9418;52.694;13.294;2023-05-31T08:43:28;4.83;;;1.57;;
18576;SDS011;9418;52.694;13.294;2023-05-31T08:45:56;2.37;;;1.50;;
18576;SDS011;9418;52.694;13.294;2023-05-31T08:48:24;2.93;;;1.73;;
18576;SDS011;9418;52.694;13.294;2023-05-31T08:50:56;1.57;;;1.47;;
18576;SDS011;9418;52.694;13.294;2023-05-31T08:53:26;5.77;;;1.53;;
18576;SDS011;9418;52.694;13.294;2023-05-31T08:55:54;1.50;;;1.30;;
18576;SDS011;9418;52.694;13.294;2023-05-31T08:58:21;2.10;;;1.53;;
18576;SDS011;9418;52.694;13.294;2023-05-31T09:00:48;1.37;;;1.00;;
18576;SDS011;9418;52.694;13.294;2023-05-31T09:03:15;1.20;;;1.10;;
18576;SDS011;9418;52.694;13.294;2023-05-31T09:05:42;3.43;;;1.60;;
18576;SDS011;9418;52.694;13.294;2023-05-31T09:08:08;1.20;;;1.03;;
18576;SDS011;9418;52.694;13.294;2023-05-31T09:10:37;2.00;;;1.17;;
18576;SDS011;9418;52.694;13.294;2023-05-31T09:13:05;3.37;;;1.57;;
18576;SDS011;9418;52.694;13.294;2023-05-31T09:15:35;5.13;;;1.00;;
18576;SDS011;9418;52.694;13.294;2023-05-31T09:18:11;2.13;;;0.90;;
18576;SDS011;9418;52.694;13.294;2023-05-31T09:20:39;0.93;;;0.83;;
18576;SDS011;9418;52.694;13.294;2023-05-31T09:23:07;11.13;;;1.60;;
18576;SDS011;9418;52.694;13.294;2023-05-31T09:25:46;2.13;;;1.10;;
18576;SDS011;9418;52.694;13.294;2023-05-31T09:28:13;6.40;;;0.97;;
18576;SDS011;9418;52.694;13.294;2023-05-31T09:30:40;2.10;;;0.50;;
18576;SDS011;9418;52.694;13.294;2023-05-31T09:33:07;4.50;;;1.27;;
18576;SDS011;9418;52.694;13.294;2023-05-31T09:35:34;1.50;;;0.93;;
18576;SDS011;9418;52.694;13.294;2023-05-31T09:38:04;1.80;;;1.00;;
18576;SDS011;9418;52.694;13.294;2023-05-31T09:40:32;2.00;;;1.07;;
18576;SDS011;9418;52.694;13.294;2023-05-31T09:43:01;1.77;;;0.97;;
18576;SDS011;9418;52.694;13.294;2023-05-31T09:45:28;0.70;;;0.70;;
18576;SDS011;9418;52.694;13.294;2023-05-31T09:47:54;1.03;;;0.70;;
18576;SDS011;9418;52.694;13.294;2023-05-31T09:50:21;0.70;;;0.70;;
18576;SDS011;9418;52.694;13.294;2023-05-31T09:52:54;1.07;;;0.67;;
18576;SDS011;9418;52.694;13.294;2023-05-31T09:55:22;1.43;;;0.80;;
18576;SDS011;9418;52.694;13.294;2023-05-31T09:57:49;1.30;;;0.70;;
18576;SDS011;9418;52.694;13.294;2023-05-31T10:00:19;0.60;;;0.60;;
18576;SDS011;9418;52.694;13.294;2023-05-31T10:02:47;0.70;;;0.70;;
18576;SDS011;9418;52.694;13.294;2023-05-31T10:05:15;0.70;;;0.57;;
18576;SDS011;9418;52.694;13.294;2023-05-31T10:07:42;0.83;;;0.50;;
18576;SDS011;9418;52.694;13.294;2023-05-31T10:10:11;0.50;;;0.40;;
18576;SDS011;9418;52.694;13.294;2023-05-31T10:12:39;0.70;;;0.47;;
18576;SDS011;9418;52.694;13.294;2023-05-31T10:15:11;0.80;;;0.60;;
18576;SDS011;9418;52.694;13.294;2023-05-31T10:17:44;0.60;;;0.60;;
18576;SDS011;9418;52.694;13.294;2023-05-31T10:20:17;3.60;;;0.53;;
18576;SDS011;9418;52.694;13.294;2023-05-31T10:22:45;6.67;;;0.70;;
18576;SDS011;9418;52.694;13.294;2023-05-31T10:25:16;1.73;;;1.20;;
18576;SDS011;9418;52.694;13.294;2023-05-31T10:27:47;0.70;;;0.50;;
18576;SDS011;9418;52.694;13.294;2023-05-31T10:30:17;1.13;;;0.70;;
18576;SDS011;9418;52.694;13.294;2023-05-31T10:32:52;2.87;;;0.50;;
18576;SDS011;9418;52.694;13.294;2023-05-31T10:35:21;2.00;;;0.97;;
18576;SDS011;9418;52.694;13.294;2023-05-31T10:37:48;2.00;;;0.60;;
18576;SDS011;9418;52.694;13.294;2023-05-31T10:40:18;1.10;;;0.50;;
18576;SDS011;9418;52.694;13.294;2023-05-31T10:42:51;1.00;;;0.70;;
18576;SDS011;9418;52.694;13.294;2023-05-31T10:45:22;0.90;;;0.90;;
18576;SDS011;9418;52.694;13.294;2023-05-31T10:47:55;1.37;;;0.60;;
18576;SDS011;9418;52.694;13.294;2023-05-31T10:50:25;0.60;;;0.60;;
18576;SDS011;9418;52.694;13.294;2023-05-31T10:52:52;7.53;;;0.60;;
18576;SDS011;9418;52.694;13.294;2023-05-31T10:55:39;3.00;;;0.67;;
18576;SDS011;9418;52.694;13.294;2023-05-31T10:58:07;1.10;;;0.50;;
18576;SDS011;9418;52.694;13.294;2023-05-31T11:00:49;1.33;;;0.67;;
18576;SDS011;9418;52.694;13.294;2023-05-31T11:03:21;0.63;;;0.63;;
18576;SDS011;9418;52.694;13.294;2023-05-31T11:05:54;2.73;;;0.47;;
18576;SDS011;9418;52.694;13.294;2023-05-31T11:08:22;1.10;;;0.60;;
18576;SDS011;9418;52.694;13.294;2023-05-31T11:10:49;3.20;;;0.67;;
18576;SDS011;9418;52.694;13.294;2023-05-31T11:13:16;4.47;;;0.70;;
18576;SDS011;9418;52.694;13.294;2023-05-31T11:15:43;0.70;;;0.50;;
18576;SDS011;9418;52.694;13.294;2023-05-31T11:18:13;0.70;;;0.50;;
18576;SDS011;9418;52.694;13.294;2023-05-31T11:20:42;1.47;;;0.70;;
18576;SDS011;9418;52.694;13.294;2023-05-31T11:23:25;0.80;;;0.70;;
18576;SDS011;9418;52.694;13.294;2023-05-31T11:26:06;5.97;;;0.87;;
18576;SDS011;9418;52.694;13.294;2023-05-31T11:34:20;2.60;;;0.93;;
18576;SDS011;9418;52.694;13.294;2023-05-31T11:36:50;1.60;;;0.60;;
18576;SDS011;9418;52.694;13.294;2023-05-31T11:39:17;2.50;;;0.97;;
18576;SDS011;9418;52.694;13.294;2023-05-31T11:41:43;3.17;;;0.90;;
18576;SDS011;9418;52.694;13.294;2023-05-31T11:44:10;0.80;;;0.80;;
18576;SDS011;9418;52.694;13.294;2023-05-31T11:46:37;1.97;;;1.00;;
18576;SDS011;9418;52.694;13.294;2023-05-31T11:49:08;11.13;;;3.10;;
18576;SDS011;9418;52.694;13.294;2023-05-31T11:51:34;1.37;;;1.00;;
18576;SDS011;9418;52.694;13.294;2023-05-31T11:54:03;2.27;;;0.80;;
18576;SDS011;9418;52.694;13.294;2023-05-31T11:56:30;2.30;;;1.03;;
18576;SDS011;9418;52.694;13.294;2023-05-31T11:58:57;4.53;;;1.07;;
18576;SDS011;9418;52.694;13.294;2023-05-31T12:01:24;2.10;;;0.90;;
18576;SDS011;9418;52.694;13.294;2023-05-31T12:03:57;9.13;;;0.93;;
18576;SDS011;9418;52.694;13.294;2023-05-31T12:06:24;5.13;;;1.10;;
18576;SDS011;9418;52.694;13.294;2023-05-31T12:08:51;1.30;;;1.10;;
18576;SDS011;9418;52.694;13.294;2023-05-31T12:11:19;3.63;;;0.90;;
18576;SDS011;9418;52.694;13.294;2023-05-31T12:13:46;1.10;;;1.00;;
18576;SDS011;9418;52.694;13.294;2023-05-31T12:16:13;2.90;;;0.90;;
18576;SDS011;9418;52.694;13.294;2023-05-31T12:18:40;1.10;;;1.00;;
18576;SDS011;9418;52.694;13.294;2023-05-31T12:21:07;11.53;;;1.00;;
18576;SDS011;9418;52.694;13.294;2023-05-31T12:23:52;1.47;;;0.80;;
18576;SDS011;9418;52.694;13.294;2023-05-31T12:26:22;2.70;;;1.00;;
18576;SDS011;9418;52.694;13.294;2023-05-31T12:28:49;1.23;;;0.70;;
18576;SDS011;9418;52.694;13.294;2023-05-31T12:31:22;2.60;;;1.03;;
18576;SDS011;9418;52.694;13.294;2023-05-31T12:33:56;2.30;;;1.10;;
18576;SDS011;9418;52.694;13.294;2023-05-31T12:36:25;1.37;;;0.80;;
18576;SDS011;9418;52.694;13.294;2023-05-31T12:38:55;1.70;;;1.10;;
18576;SDS011;9418;52.694;13.294;2023-05-31T12:41:23;1.70;;;1.43;;
18576;SDS011;9418;52.694;13.294;2023-05-31T12:43:50;1.10;;;1.00;;
18576;SDS011;9418;52.694;13.294;2023-05-31T12:46:18;2.50;;;0.80;;
18576;SDS011;9418;52.694;13.294;2023-05-31T12:48:45;1.43;;;0.60;;
18576;SDS011;9418;52.694;13.294;2023-05-31T12:51:12;7.13;;;1.37;;
18576;SDS011;9418;52.694;13.294;2023-05-31T12:53:39;2.17;;;1.00;;
18576;SDS011;9418;52.694;13.294;2023-05-31T12:56:06;1.53;;;1.10;;
18576;SDS011;9418;52.694;13.294;2023-05-31T12:58:33;1.57;;;0.70;;
18576;SDS011;9418;52.694;13.294;2023-05-31T13:01:00;0.80;;;0.80;;
18576;SDS011;9418;52.694;13.294;2023-05-31T13:03:27;0.73;;;0.70;;
18576;SDS011;9418;52.694;13.294;2023-05-31T13:05:53;6.57;;;1.07;;
18576;SDS011;9418;52.694;13.294;2023-05-31T13:08:20;1.33;;;0.87;;
18576;SDS011;9418;52.694;13.294;2023-05-31T13:10:46;3.23;;;0.90;;
18576;SDS011;9418;52.694;13.294;2023-05-31T13:13:13;2.53;;;1.40;;
18576;SDS011;9418;52.694;13.294;2023-05-31T13:15:41;2.70;;;0.90;;
18576;SDS011;9418;52.694;13.294;2023-05-31T13:18:08;3.37;;;1.30;;
18576;SDS011;9418;52.694;13.294;2023-05-31T13:20:34;4.60;;;1.20;;
18576;SDS011;9418;52.694;13.294;2023-05-31T13:23:01;1.80;;;1.40;;
18576;SDS011;9418;52.694;13.294;2023-05-31T13:25:27;1.40;;;1.13;;
18576;SDS011;9418;52.694;13.294;2023-05-31T13:27:54;5.77;;;0.80;;
18576;SDS011;9418;52.694;13.294;2023-05-31T13:30:21;1.23;;;1.13;;
18576;SDS011;9418;52.694;13.294;2023-05-31T13:32:48;3.77;;;0.93;;
18576;SDS011;9418;52.694;13.294;2023-05-31T13:35:15;4.87;;;1.20;;
18576;SDS011;9418;52.694;13.294;2023-05-31T13:37:42;1.50;;;1.13;;
18576;SDS011;9418;52.694;13.294;2023-05-31T13:40:08;1.50;;;1.40;;
18576;SDS011;9418;52.694;13.294;2023-05-31T13:42:36;1.23;;;1.10;;
18576;SDS011;9418;52.694;13.294;2023-05-31T13:45:02;4.97;;;1.53;;
18576;SDS011;9418;52.694;13.294;2023-05-31T13:47:30;5.47;;;1.10;;
18576;SDS011;9418;52.694;13.294;2023-05-31T13:49:57;2.00;;;1.10;;
18576;SDS011;9418;52.694;13.294;2023-05-31T13:52:24;2.03;;;1.10;;
18576;SDS011;9418;52.694;13.294;2023-05-31T13:54:50;0.70;;;0.63;;
18576;SDS011;9418;52.694;13.294;2023-05-31T13:57:17;1.80;;;1.20;;
18576;SDS011;9418;52.694;13.294;2023-05-31T13:59:43;1.23;;;1.13;;
18576;SDS011;9418;52.694;13.294;2023-05-31T14:02:10;2.70;;;1.67;;
18576;SDS011;9418;52.694;13.294;2023-05-31T14:04:37;7.33;;;1.67;;
18576;SDS011;9418;52.694;13.294;2023-05-31T14:07:05;1.43;;;0.90;;
18576;SDS011;9418;52.694;13.294;2023-05-31T14:09:31;1.20;;;1.10;;
18576;SDS011;9418;52.694;13.294;2023-05-31T14:11:58;3.70;;;1.23;;
18576;SDS011;9418;52.694;13.294;2023-05-31T14:14:24;7.33;;;1.00;;
18576;SDS011;9418;52.694;13.294;2023-05-31T14:16:51;2.93;;;1.33;;
18576;SDS011;9418;52.694;13.294;2023-05-31T14:19:18;1.87;;;1.20;;
18576;SDS011;9418;52.694;13.294;2023-05-31T14:21:44;1.10;;;1.00;;
18576;SDS011;9418;52.694;13.294;2023-05-31T14:24:12;1.63;;;1.10;;
18576;SDS011;9418;52.694;13.294;2023-05-31T14:26:39;2.43;;;1.10;;
18576;SDS011;9418;52.694;13.294;2023-05-31T14:29:05;4.67;;;1.40;;
18576;SDS011;9418;52.694;13.294;2023-05-31T14:31:32;1.53;;;1.40;;
18576;SDS011;9418;52.694;13.294;2023-05-31T14:33:58;4.40;;;1.20;;
18576;SDS011;9418;52.694;13.294;2023-05-31T14:36:25;2.40;;;1.20;;
18576;SDS011;9418;52.694;13.294;2023-05-31T14:38:52;4.10;;;1.13;;
18576;SDS011;9418;52.694;13.294;2023-05-31T14:41:19;1.30;;;1.20;;
18576;SDS011;9418;52.694;13.294;2023-05-31T14:43:46;2.13;;;1.47;;
18576;SDS011;9418;52.694;13.294;2023-05-31T14:46:13;7.00;;;1.30;;
18576;SDS011;9418;52.694;13.294;2023-05-31T14:48:40;1.93;;;1.20;;
18576;SDS011;9418;52.694;13.294;2023-05-31T14:51:06;3.63;;;1.17;;
18576;SDS011;9418;52.694;13.294;2023-05-31T14:53:33;1.33;;;1.00;;
18576;SDS011;9418;52.694;13.294;2023-05-31T14:55:59;4.30;;;1.10;;
18576;SDS011;9418;52.694;13.294;2023-05-31T14:58:27;1.63;;;1.33;;
18576;SDS011;9418;52.694;13.294;2023-05-31T15:00:54;1.60;;;1.50;;